createdAt,value
2022-11-16T00:01:25.879Z,100032.41
2022-11-16T00:03:56.079Z,100038.59
2022-11-16T00:06:23.826Z,100034.84
2022-11-16T00:09:13.230Z,100030.25
2022-11-16T00:11:40.299Z,100026.78
2022-11-16T00:14:07.363Z,100031.84
2022-11-16T00:16:34.415Z,100030.75
2022-11-16T00:19:03.266Z,100024.59
2022-11-16T00:21:30.642Z,100025.41
2022-11-16T00:23:57.148Z,100026.47
2022-11-16T00:26:24.046Z,100031.84
2022-11-16T00:28:52.572Z,100028.88
2022-11-16T00:31:19.339Z,100025.41
2022-11-16T00:33:46.096Z,100016.25
2022-11-16T00:36:13.757Z,100025.09
2022-11-16T00:38:40.921Z,100030.97
2022-11-16T00:41:08.460Z,100026.41
2022-11-16T00:43:35.982Z,100029.38
2022-11-16T00:46:02.879Z,100027.50
2022-11-16T00:48:29.245Z,100019.47
2022-11-16T00:50:55.579Z,100019.94
2022-11-16T00:53:22.063Z,100019.94
2022-11-16T00:55:48.451Z,100011.91
2022-11-16T00:58:15.729Z,100008.94
2022-11-16T01:00:43.639Z,100012.41
2022-11-16T01:03:10.407Z,100008.63
2022-11-16T01:05:36.739Z,100003.28
2022-11-16T01:08:03.371Z,100004.09
2022-11-16T01:10:29.923Z,100013.22
2022-11-16T01:12:56.855Z,100005.94
2022-11-16T01:15:25.493Z,100014.81
2022-11-16T01:17:53.378Z,100001.09
2022-11-16T01:20:22.100Z,99998.72
2022-11-16T01:22:48.747Z,100003.00
2022-11-16T01:25:16.006Z,99998.41
2022-11-16T01:27:42.682Z,100008.34
2022-11-16T01:30:12.161Z,100002.19
2022-11-16T01:32:38.560Z,99999.50
2022-11-16T01:35:06.214Z,100001.09
2022-11-16T01:37:33.443Z,99997.31
2022-11-16T01:39:59.942Z,99992.75
2022-11-16T01:42:29.628Z,99997.31
2022-11-16T01:45:43.916Z,99989.28
2022-11-16T01:48:17.267Z,99991.97
2022-11-16T01:50:45.180Z,100000.00
2022-11-16T01:53:13.088Z,99994.66
2022-11-16T01:55:41.173Z,99990.06
2022-11-16T01:58:10.618Z,99987.38
2022-11-16T02:00:37.105Z,99989.28
2022-11-16T02:03:03.536Z,99988.19
2022-11-16T02:06:08.396Z,99983.59
2022-11-16T02:09:17.977Z,99979.06
2022-11-16T02:12:02.112Z,99969.13
2022-11-16T02:14:50.747Z,99969.13
2022-11-16T02:17:23.176Z,99971.00
2022-11-16T02:20:21.338Z,99958.38
2022-11-16T02:22:53.694Z,99961.88
2022-11-16T02:25:34.938Z,99959.97
2022-11-16T02:28:19.603Z,99959.97
2022-11-16T02:30:50.838Z,99967.75
2022-11-16T02:33:23.186Z,99967.75
2022-11-16T02:35:56.283Z,99963.47
2022-11-16T02:38:45.368Z,99955.44
2022-11-16T02:41:17.461Z,99955.69
2022-11-16T02:43:47.620Z,99959.19
2022-11-16T02:46:22.600Z,99964.56
2022-11-16T02:48:53.093Z,99964.25
2022-11-16T02:51:21.575Z,99952.75
2022-11-16T02:54:00.510Z,99952.75
2022-11-16T02:56:27.039Z,99959.19
2022-11-16T02:58:53.639Z,99957.28
2022-11-16T03:01:30.824Z,99957.28
2022-11-16T03:04:21.461Z,99953.31
2022-11-16T03:06:51.241Z,99956.78
2022-11-16T03:09:24.497Z,99952.25
2022-11-16T03:12:00.495Z,99962.66
2022-11-16T03:14:48.520Z,99959.47
2022-11-16T03:17:21.778Z,99961.38
2022-11-16T03:20:10.912Z,99962.97
2022-11-16T03:22:41.888Z,99964.84
2022-11-16T03:25:11.593Z,99971.78
2022-11-16T03:27:56.388Z,99970.19
2022-11-16T03:30:24.822Z,99978.84
2022-11-16T03:33:03.469Z,99965.72
2022-11-16T03:35:43.625Z,99967.41
2022-11-16T03:38:12.036Z,99963.16
2022-11-16T03:40:40.553Z,99973.06
2022-11-16T03:43:08.454Z,99966.09
2022-11-16T03:45:36.454Z,99977.41
2022-11-16T03:48:03.203Z,99972.34
2022-11-16T03:50:29.683Z,99980.97
2022-11-16T03:52:55.990Z,99982.88
2022-11-16T03:55:22.326Z,99979.66
2022-11-16T03:57:48.651Z,99981.56
2022-11-16T04:00:15.390Z,99982.16
2022-11-16T04:02:41.979Z,99987.50
2022-11-16T04:05:38.931Z,99988.88
2022-11-16T04:08:24.246Z,99999.13
2022-11-16T04:11:09.650Z,99993.50
2022-11-16T04:13:54.859Z,99993.50
2022-11-16T04:16:39.681Z,99993.59
2022-11-16T04:19:24.476Z,99992.59
2022-11-16T04:22:15.250Z,99990.78
2022-11-16T04:24:46.120Z,99986.81
2022-11-16T04:27:34.028Z,99990.34
2022-11-16T04:30:02.328Z,99996.00
2022-11-16T04:32:47.697Z,99996.28
2022-11-16T04:35:29.446Z,99993.88
2022-11-16T04:37:57.962Z,100002.78
2022-11-16T04:40:30.424Z,100007.94
2022-11-16T04:43:01.964Z,100008.47
2022-11-16T04:45:46.638Z,100004.78
2022-11-16T04:48:14.623Z,100003.47
2022-11-16T04:50:41.453Z,100002.38
2022-11-16T04:53:08.335Z,100005.38
2022-11-16T04:55:35.156Z,100011.59
2022-11-16T04:58:02.335Z,100003.31
2022-11-16T05:00:29.010Z,100012.22
2022-11-16T05:03:00.759Z,100008.44
2022-11-16T05:05:27.768Z,100011.41
2022-11-16T05:07:54.185Z,100008.22
2022-11-16T05:10:20.544Z,100014.38
2022-11-16T05:12:46.866Z,100015.44
2022-11-16T05:15:13.443Z,100013.88
2022-11-16T05:17:39.783Z,100025.94
2022-11-16T05:20:26.071Z,100023.59
2022-11-16T05:22:56.608Z,100026.84
2022-11-16T05:25:23.013Z,100027.72
2022-11-16T05:27:49.560Z,100036.81
2022-11-16T05:30:16.484Z,100035.53
2022-11-16T05:32:42.799Z,100027.78
2022-11-16T05:35:09.189Z,100031.25
2022-11-16T05:37:35.512Z,100034.22
2022-11-16T05:40:01.940Z,100038.84
2022-11-16T05:42:28.248Z,100037.75
2022-11-16T05:44:54.671Z,100037.22
2022-11-16T05:47:21.094Z,100045.53
2022-11-16T05:49:47.435Z,100047.72
2022-11-16T05:52:13.788Z,100054.41
2022-11-16T05:54:40.125Z,100055.00
2022-11-16T05:57:06.497Z,100050.44
2022-11-16T05:59:32.859Z,100051.81
2022-11-16T06:01:59.254Z,100053.66
2022-11-16T06:04:25.639Z,100055.03
2022-11-16T06:06:52.226Z,100054.81
2022-11-16T06:09:18.659Z,100054.28
2022-11-16T06:11:45.002Z,100049.50
2022-11-16T06:14:11.311Z,100051.09
2022-11-16T06:16:37.647Z,100059.69
2022-11-16T06:19:03.989Z,100050.34
2022-11-16T06:21:30.479Z,100047.66
2022-11-16T06:23:56.778Z,100049.81
2022-11-16T06:26:23.190Z,100049.03
2022-11-16T06:28:49.520Z,100051.72
2022-11-16T06:31:16.123Z,100051.72
2022-11-16T06:33:42.452Z,100049.59
2022-11-16T06:36:08.932Z,100057.09
2022-11-16T06:38:35.460Z,100060.06
2022-11-16T06:41:02.491Z,100052.59
2022-11-16T06:43:28.837Z,100059.00
2022-11-16T06:45:57.893Z,100062.25
2022-11-16T06:48:24.311Z,100069.22
2022-11-16T06:50:52.103Z,100072.19
2022-11-16T06:53:19.299Z,100074.91
2022-11-16T06:55:45.675Z,100080.53
2022-11-16T06:58:12.423Z,100073.06
2022-11-16T07:00:38.938Z,100078.47
2022-11-16T07:03:05.592Z,100087.31
2022-11-16T07:05:33.092Z,100078.78
2022-11-16T07:07:59.536Z,100079.31
2022-11-16T07:10:26.297Z,100082.53
2022-11-16T07:12:52.852Z,100084.44
2022-11-16T07:15:19.619Z,100090.34
2022-11-16T07:17:46.286Z,100087.44
2022-11-16T07:20:12.695Z,100093.63
2022-11-16T07:22:39.054Z,100101.09
2022-11-16T07:25:05.908Z,100097.13
2022-11-16T07:27:32.230Z,100106.75
2022-11-16T07:29:58.590Z,100106.22
2022-11-16T07:32:24.947Z,100109.47
2022-11-16T07:34:51.306Z,100111.59
2022-11-16T07:37:17.699Z,100119.09
2022-11-16T07:39:44.057Z,100122.03
2022-11-16T07:42:12.011Z,100120.44
2022-11-16T07:44:39.078Z,100121.78
2022-11-16T07:47:05.981Z,100126.34
2022-11-16T07:49:32.423Z,100131.94
2022-11-16T07:51:58.913Z,100141.03
2022-11-16T07:54:25.245Z,100137.56
2022-11-16T07:56:51.554Z,100139.44
2022-11-16T07:59:17.911Z,100140.50
2022-11-16T08:01:47.002Z,100148.25
2022-11-16T08:04:15.310Z,100155.97
2022-11-16T08:06:41.685Z,100157.03
2022-11-16T08:09:09.324Z,100164.00
2022-11-16T08:11:35.657Z,100161.03
2022-11-16T08:14:02.043Z,100166.38
2022-11-16T08:16:28.686Z,100167.16
2022-11-16T08:18:55.227Z,100167.91
2022-11-16T08:21:21.573Z,100173.00
2022-11-16T08:23:48.005Z,100165.78
2022-11-16T08:26:16.776Z,100166.53
2022-11-16T08:28:45.310Z,100171.84
2022-11-16T08:31:17.374Z,100174.50
2022-11-16T08:33:43.855Z,100180.91
2022-11-16T08:36:14.468Z,100174.97
2022-11-16T08:38:41.023Z,100177.09
2022-11-16T08:41:07.663Z,100167.16
2022-11-16T08:43:35.680Z,100184.53
2022-11-16T08:46:02.209Z,100180.00
2022-11-16T08:48:28.516Z,100180.00
2022-11-16T08:51:16.531Z,100185.91
2022-11-16T08:53:41.363Z,100189.88
2022-11-16T08:56:10.093Z,100186.63
2022-11-16T08:58:36.571Z,100184.44
2022-11-16T09:01:14.904Z,100187.34
2022-11-16T09:03:41.880Z,100181.38
2022-11-16T09:06:09.481Z,100186.41
2022-11-16T09:08:37.395Z,100189.63
2022-11-16T09:11:05.481Z,100189.63
2022-11-16T09:13:31.876Z,100190.03
2022-11-16T09:15:59.597Z,100197.84
2022-11-16T09:18:27.279Z,100194.34
2022-11-16T09:20:54.399Z,100192.41
2022-11-16T09:23:25.036Z,100196.00
2022-11-16T09:25:52.007Z,100193.03
2022-11-16T09:28:19.142Z,100197.72
2022-11-16T09:30:46.826Z,100199.78
2022-11-16T09:33:13.507Z,100199.25
2022-11-16T09:35:40.308Z,100204.28
2022-11-16T09:38:06.731Z,100209.34
2022-11-16T09:40:36.648Z,100206.41
2022-11-16T09:43:09.004Z,100211.13
2022-11-16T09:45:59.513Z,100220.00
2022-11-16T09:48:26.350Z,100215.47
2022-11-16T09:51:02.846Z,100209.28
2022-11-16T09:53:38.638Z,100204.69
2022-11-16T09:56:20.635Z,100211.06
2022-11-16T09:59:18.022Z,100210.25
2022-11-16T10:01:58.028Z,100209.31
2022-11-16T10:04:27.706Z,100217.22
2022-11-16T10:07:14.212Z,100207.63
2022-11-16T10:09:41.374Z,100215.09
2022-11-16T10:12:27.940Z,100214.19
2022-11-16T10:15:15.128Z,100200.09
2022-11-16T10:17:54.403Z,100211.25
2022-11-16T10:20:48.911Z,100213.88
2022-11-16T10:23:34.291Z,100204.50
2022-11-16T10:26:16.608Z,100205.03
2022-11-16T10:28:53.714Z,100197.59
2022-11-16T10:31:55.348Z,100204.66
2022-11-16T10:34:42.595Z,100205.03
2022-11-16T10:37:13.052Z,100203.59
2022-11-16T10:39:41.088Z,100200.75
2022-11-16T10:42:13.338Z,100202.88
2022-11-16T10:44:46.290Z,100198.81
2022-11-16T10:47:21.922Z,100200.31
2022-11-16T10:50:17.406Z,100205.88
2022-11-16T10:52:43.748Z,100204.28
2022-11-16T10:55:15.293Z,100209.84
2022-11-16T10:58:03.068Z,100209.66
2022-11-16T11:00:51.691Z,100207.06
2022-11-16T11:03:32.438Z,100201.31
2022-11-16T11:05:59.673Z,100205.69
2022-11-16T11:08:30.564Z,100211.44
2022-11-16T11:11:01.742Z,100204.59
2022-11-16T11:13:28.540Z,100202.03
2022-11-16T11:16:15.443Z,100203.41
2022-11-16T11:18:42.427Z,100195.84
2022-11-16T11:21:20.862Z,100198.47
2022-11-16T11:23:52.343Z,100198.94
2022-11-16T11:26:37.118Z,100196.56
2022-11-16T11:29:24.567Z,100191.28
2022-11-16T11:31:55.111Z,100180.13
2022-11-16T11:34:27.529Z,100177.75
2022-11-16T11:37:01.085Z,100181.28
2022-11-16T11:39:36.451Z,100178.41
2022-11-16T11:42:21.432Z,100170.66
2022-11-16T11:44:58.601Z,100176.31
2022-11-16T11:50:45.331Z,100160.09
2022-11-16T11:53:34.654Z,100158.28
2022-11-16T11:56:01.412Z,100162.00
2022-11-16T11:58:35.490Z,100151.28
2022-11-16T12:01:30.515Z,100171.41
2022-11-16T12:04:21.059Z,100161.47
2022-11-16T12:07:05.685Z,100167.09
2022-11-16T12:09:38.786Z,100162.41
2022-11-16T12:12:14.639Z,100161.00
2022-11-16T12:15:03.442Z,100161.78
2022-11-16T12:18:05.291Z,100168.44
2022-11-16T12:20:52.752Z,100164.09
2022-11-16T12:23:33.910Z,100166.34
2022-11-16T12:26:26.058Z,100164.84
2022-11-16T12:29:11.368Z,100163.53
2022-11-16T12:31:56.210Z,100162.25
2022-11-16T12:34:31.670Z,100161.59
2022-11-16T12:37:19.747Z,100156.81
2022-11-16T12:40:04.427Z,100163.69
2022-11-16T12:42:42.173Z,100164.16
2022-11-16T12:45:39.193Z,100150.47
2022-11-16T12:48:17.682Z,100143.06
2022-11-16T12:51:02.203Z,100136.72
2022-11-16T12:54:06.633Z,100131.50
2022-11-16T12:56:49.233Z,100130.31
2022-11-16T12:59:30.678Z,100136.44
2022-11-16T13:02:24.421Z,100123.28
2022-11-16T13:05:04.326Z,100122.06
2022-11-16T13:07:42.807Z,100122.34
2022-11-16T13:10:19.932Z,100120.47
2022-11-16T13:12:55.777Z,100122.66
2022-11-16T13:15:37.087Z,100131.56
2022-11-16T13:18:07.323Z,100133.44
2022-11-16T13:21:01.612Z,100117.09
2022-11-16T13:23:31.328Z,100111.63
2022-11-16T13:26:16.754Z,100111.72
2022-11-16T13:29:01.851Z,100111.81
2022-11-16T13:31:38.334Z,100107.78
2022-11-16T13:34:19.002Z,100113.06
2022-11-16T13:36:46.481Z,100105.72
2022-11-16T13:39:21.561Z,100124.22
2022-11-16T13:42:07.258Z,100118.59
2022-11-16T13:44:34.548Z,100118.31
2022-11-16T13:47:04.750Z,100117.38
2022-11-16T13:49:48.889Z,100119.28
2022-11-16T13:52:26.379Z,100109.53
2022-11-16T13:54:56.861Z,100101.31
2022-11-16T13:57:34.461Z,100093.53
2022-11-16T14:00:00.771Z,100100.50
2022-11-16T14:02:33.538Z,100093.53
2022-11-16T14:05:03.104Z,100084.41
2022-11-16T14:07:31.187Z,100082.59
2022-11-16T14:09:57.701Z,100092.25
2022-11-16T14:12:53.135Z,100099.31
2022-11-16T14:15:28.638Z,100082.50
2022-11-16T14:17:59.644Z,100087.66
2022-11-16T14:20:38.060Z,100083.69
2022-11-16T14:23:24.008Z,100071.84
2022-11-16T14:26:02.478Z,100069.06
2022-11-16T14:28:58.093Z,100078.56
2022-11-16T14:31:29.321Z,100072.81
2022-11-16T14:33:59.252Z,100073.19
2022-11-16T14:36:43.043Z,100069.47
2022-11-16T14:39:26.192Z,100072.03
2022-11-16T14:41:53.359Z,100075.28
2022-11-16T14:44:26.391Z,100073.69
2022-11-16T14:46:53.039Z,100064.50
2022-11-16T14:49:21.480Z,100056.13
2022-11-16T14:51:53.608Z,100051.34
2022-11-16T14:54:28.393Z,100051.16
2022-11-16T14:57:19.142Z,100045.78
2022-11-16T14:59:45.479Z,100047.75
2022-11-16T15:02:25.358Z,100045.44
2022-11-16T15:04:53.147Z,100039.16
2022-11-16T15:07:23.428Z,100040.25
2022-11-16T15:09:56.067Z,100036.84
2022-11-16T15:12:41.277Z,100031.28
2022-11-16T15:15:15.171Z,100043.16
2022-11-16T15:17:44.676Z,100031.41
2022-11-16T15:20:23.347Z,100026.13
2022-11-16T15:22:55.419Z,100019.75
2022-11-16T15:25:27.871Z,100022.28
2022-11-16T15:27:55.929Z,100028.31
2022-11-16T15:30:34.251Z,100000.22
2022-11-16T15:33:10.421Z,100008.31
2022-11-16T15:35:38.158Z,100014.31
2022-11-16T15:38:15.037Z,100013.56
2022-11-16T15:40:46.385Z,100005.88
2022-11-16T15:43:14.136Z,100011.22
2022-11-16T15:45:42.920Z,100001.13
2022-11-16T15:48:15.652Z,99998.25
2022-11-16T15:51:04.064Z,99991.63
2022-11-16T15:53:38.959Z,99982.56
2022-11-16T15:56:11.227Z,99969.84
2022-11-16T15:58:40.100Z,99969.88
2022-11-16T16:01:08.256Z,99965.13
2022-11-16T16:03:36.765Z,99969.97
2022-11-16T16:06:04.036Z,99968.94
2022-11-16T16:08:39.391Z,99956.13
2022-11-16T16:11:27.224Z,99941.22
2022-11-16T16:13:59.478Z,99938.56
2022-11-16T16:16:28.063Z,99956.06
2022-11-16T16:18:58.089Z,99967.34
2022-11-16T16:21:26.103Z,99967.63
2022-11-16T16:23:54.502Z,99964.44
2022-11-16T16:26:22.703Z,99960.16
2022-11-16T16:28:50.031Z,99965.28
2022-11-16T16:31:18.831Z,99958.63
2022-11-16T16:33:45.370Z,99957.31
2022-11-16T16:36:13.485Z,99951.44
2022-11-16T16:38:39.931Z,99941.31
2022-11-16T16:41:06.991Z,99946.97
2022-11-16T16:43:34.438Z,99941.34
2022-11-16T16:46:02.772Z,99939.53
2022-11-16T16:48:29.485Z,99946.47
2022-11-16T16:50:55.905Z,99932.31
2022-11-16T16:53:22.234Z,99926.44
2022-11-16T16:55:48.904Z,99934.75
2022-11-16T16:58:15.966Z,99933.72
2022-11-16T17:00:42.697Z,99928.94
2022-11-16T17:03:09.478Z,99928.72
2022-11-16T17:05:35.920Z,99925.22
2022-11-16T17:08:02.243Z,99916.69
2022-11-16T17:10:28.695Z,99912.19
2022-11-16T17:12:56.032Z,99918.91
2022-11-16T17:15:23.098Z,99918.94
2022-11-16T17:17:49.547Z,99917.34
2022-11-16T17:20:16.371Z,99910.41
2022-11-16T17:22:43.030Z,99909.91
2022-11-16T17:25:10.506Z,99908.84
2022-11-16T17:27:36.875Z,99905.97
2022-11-16T17:30:04.121Z,99919.59
2022-11-16T17:32:30.480Z,99913.22
2022-11-16T17:34:56.801Z,99912.97
2022-11-16T17:37:23.183Z,99914.88
2022-11-16T17:39:49.497Z,99920.28
2022-11-16T17:42:15.830Z,99917.88
2022-11-16T17:44:42.150Z,99913.59
2022-11-16T17:47:09.029Z,99915.19
2022-11-16T17:49:35.363Z,99902.91
2022-11-16T17:52:02.179Z,99894.41
2022-11-16T17:54:28.520Z,99890.69
2022-11-16T17:56:54.875Z,99888.56
2022-11-16T17:59:24.987Z,99890.22
2022-11-16T18:01:54.438Z,99886.50
2022-11-16T18:04:20.778Z,99891.56
2022-11-16T18:06:47.124Z,99885.72
2022-11-16T18:09:13.454Z,99884.34
2022-11-16T18:11:39.832Z,99883.28
2022-11-16T18:14:06.184Z,99881.69
2022-11-16T18:16:33.649Z,99880.59
2022-11-16T18:19:03.155Z,99880.84
2022-11-16T18:21:30.361Z,99877.63
2022-11-16T18:23:59.254Z,99881.84
2022-11-16T18:26:25.654Z,99871.66
2022-11-16T18:28:52.999Z,99879.13
2022-11-16T18:31:22.078Z,99879.66
2022-11-16T18:33:51.391Z,99872.13
2022-11-16T18:36:19.631Z,99876.13
2022-11-16T18:38:46.216Z,99878.00
2022-11-16T18:41:12.482Z,99876.66
2022-11-16T18:43:41.676Z,99870.72
2022-11-16T18:46:08.509Z,99867.28
2022-11-16T18:48:35.021Z,99867.53
2022-11-16T18:51:03.171Z,99864.06
2022-11-16T18:53:31.207Z,99856.34
2022-11-16T18:55:58.382Z,99855.00
2022-11-16T18:58:49.205Z,99850.75
2022-11-16T19:01:14.584Z,99847.28
2022-11-16T19:03:41.199Z,99847.28
2022-11-16T19:06:08.946Z,99841.09
2022-11-16T19:08:37.297Z,99837.88
2022-11-16T19:11:08.595Z,99837.81
2022-11-16T19:13:35.537Z,99825.25
2022-11-16T19:16:02.336Z,99818.00
2022-11-16T19:18:28.690Z,99822.03
2022-11-16T19:21:15.586Z,99809.44
2022-11-16T19:23:44.354Z,99798.19
2022-11-16T19:26:12.851Z,99784.53
2022-11-16T19:28:41.319Z,99778.41
2022-11-16T19:31:09.887Z,99778.41
2022-11-16T19:33:37.252Z,99770.91
2022-11-16T19:36:12.576Z,99768.66
2022-11-16T19:38:39.428Z,99756.88
2022-11-16T19:41:07.210Z,99756.59
2022-11-16T19:43:34.616Z,99757.19
2022-11-16T19:46:08.691Z,99751.31
2022-11-16T19:48:35.883Z,99744.91
2022-11-16T19:51:14.393Z,99743.53
2022-11-16T19:53:40.953Z,99738.69
2022-11-16T19:56:10.813Z,99728.78
2022-11-16T19:58:38.448Z,99723.16
2022-11-16T20:01:07.890Z,99717.81
2022-11-16T20:03:34.912Z,99714.84
2022-11-16T20:06:06.965Z,99717.72
2022-11-16T20:08:33.459Z,99701.19
2022-11-16T20:10:59.839Z,99696.94
2022-11-16T20:13:26.197Z,99696.13
2022-11-16T20:15:52.540Z,99691.28
2022-11-16T20:18:18.859Z,99683.84
2022-11-16T20:20:45.174Z,99675.81
2022-11-16T20:23:14.843Z,99679.56
2022-11-16T20:25:41.170Z,99672.56
2022-11-16T20:28:07.588Z,99672.28
2022-11-16T20:30:33.984Z,99666.94
2022-11-16T20:33:00.283Z,99673.09
2022-11-16T20:35:26.627Z,99674.69
2022-11-16T20:37:52.927Z,99668.25
2022-11-16T20:40:19.249Z,99658.06
2022-11-16T20:42:46.796Z,99661.22
2022-11-16T20:45:13.289Z,99648.66
2022-11-16T20:47:39.603Z,99643.00
2022-11-16T20:50:06.116Z,99643.22
2022-11-16T20:52:32.455Z,99639.47
2022-11-16T20:54:58.786Z,99628.78
2022-11-16T20:57:25.123Z,99622.84
2022-11-16T20:59:51.466Z,99621.25
2022-11-16T21:02:17.785Z,99624.75
2022-11-16T21:04:44.103Z,99626.59
2022-11-16T21:07:10.938Z,99625.22
2022-11-16T21:09:57.406Z,99623.34
2022-11-16T21:12:42.976Z,99606.28
2022-11-16T21:15:09.739Z,99595.91
2022-11-16T21:17:36.107Z,99585.41
2022-11-16T21:20:26.413Z,99578.97
2022-11-16T21:22:50.258Z,99575.22
2022-11-16T21:25:17.010Z,99574.13
2022-11-16T21:27:43.339Z,99565.59
2022-11-16T21:30:10.123Z,99562.91
2022-11-16T21:32:36.463Z,99553.50
2022-11-16T21:35:02.860Z,99550.06
2022-11-16T21:37:29.196Z,99552.22
2022-11-16T21:39:55.499Z,99537.78
2022-11-16T21:42:21.815Z,99536.38
2022-11-16T21:44:48.159Z,99522.72
2022-11-16T21:47:14.541Z,99524.59
2022-11-16T21:50:00.932Z,99514.97
2022-11-16T21:52:28.727Z,99501.91
2022-11-16T21:55:01.234Z,99499.50
2022-11-16T21:57:27.820Z,99489.94
2022-11-16T21:59:54.171Z,99492.59
2022-11-16T22:02:20.501Z,99483.78
2022-11-16T22:05:05.488Z,99473.06
2022-11-16T22:07:36.628Z,99473.56
2022-11-16T22:10:08.286Z,99476.25
2022-11-16T22:12:34.897Z,99474.66
2022-11-16T22:15:02.150Z,99459.69
2022-11-16T22:17:28.956Z,99447.91
2022-11-16T22:19:55.565Z,99454.84
2022-11-16T22:22:22.571Z,99442.00
2022-11-16T22:24:49.039Z,99440.09
2022-11-16T22:27:15.966Z,99431.28
2022-11-16T22:29:42.342Z,99422.97
2022-11-16T22:32:09.057Z,99417.59
2022-11-16T22:34:35.674Z,99409.59
2022-11-16T22:37:02.130Z,99389.78
2022-11-16T22:39:28.483Z,99384.44
2022-11-16T22:41:54.790Z,99382.56
2022-11-16T22:44:21.099Z,99374.81
2022-11-16T22:46:49.353Z,99371.38
2022-11-16T22:49:15.655Z,99363.03
2022-11-16T22:51:42.243Z,99363.84
2022-11-16T22:54:11.325Z,99357.09
2022-11-16T22:56:38.250Z,99341.03
2022-11-16T22:59:05.687Z,99332.84
2022-11-16T23:01:32.551Z,99325.91
2022-11-16T23:03:58.922Z,99318.16
2022-11-16T23:06:25.391Z,99314.69
2022-11-16T23:08:51.766Z,99308.06
2022-11-16T23:11:39.102Z,99295.28
2022-11-16T23:14:25.753Z,99292.63
2022-11-16T23:16:52.675Z,99284.59
2022-11-16T23:19:38.809Z,99274.50
2022-11-16T23:22:25.145Z,99272.91
2022-11-16T23:25:10.455Z,99274.00
2022-11-16T23:27:45.027Z,99270.81
2022-11-16T23:30:13.063Z,99259.34
2022-11-16T23:32:40.426Z,99256.16
2022-11-16T23:35:07.373Z,99251.13
2022-11-16T23:37:33.815Z,99238.84
2022-11-16T23:40:00.297Z,99227.97
2022-11-16T23:43:01.803Z,99219.16
2022-11-16T23:45:28.155Z,99212.72
2022-11-16T23:47:54.511Z,99193.22
2022-11-16T23:50:20.824Z,99182.03
2022-11-16T23:52:47.155Z,99180.44
2022-11-16T23:55:13.486Z,99162.31
2022-11-16T23:57:39.857Z,99147.06
